sensor_id;sensor_type;location;lat;lon;timestamp;P1;durP1;ratioP1;P2;durP2;ratioP2
68074;SDS011;54864;52.002;5.468;2023-04-21T00:00:19;29.23;;;20.88;;
68074;SDS011;54864;52.002;5.468;2023-04-21T00:01:19;27.83;;;20.23;;
68074;SDS011;54864;52.002;5.468;2023-04-21T00:02:21;29.20;;;20.70;;
68074;SDS011;54864;52.002;5.468;2023-04-21T00:03:22;30.27;;;20.90;;
68074;SDS011;54864;52.002;5.468;2023-04-21T00:04:26;27.50;;;20.08;;
68074;SDS011;54864;52.002;5.468;2023-04-21T00:05:27;30.85;;;21.50;;
68074;SDS011;54864;52.002;5.468;2023-04-21T00:06:30;29.00;;;21.33;;
68074;SDS011;54864;52.002;5.468;2023-04-21T00:07:33;30.30;;;20.30;;
68074;SDS011;54864;52.002;5.468;2023-04-21T00:08:36;30.67;;;21.70;;
68074;SDS011;54864;52.002;5.468;2023-04-21T00:09:39;30.27;;;20.55;;
68074;SDS011;54864;52.002;5.468;2023-04-21T00:10:41;27.42;;;19.98;;
68074;SDS011;54864;52.002;5.468;2023-04-21T00:11:42;31.60;;;21.53;;
68074;SDS011;54864;52.002;5.468;2023-04-21T00:12:43;29.45;;;21.33;;
68074;SDS011;54864;52.002;5.468;2023-04-21T00:13:44;31.08;;;20.75;;
68074;SDS011;54864;52.002;5.468;2023-04-21T00:14:46;32.30;;;21.73;;
68074;SDS011;54864;52.002;5.468;2023-04-21T00:15:47;27.93;;;20.57;;
68074;SDS011;54864;52.002;5.468;2023-04-21T00:16:48;28.63;;;20.65;;
68074;SDS011;54864;52.002;5.468;2023-04-21T00:17:51;29.02;;;21.10;;
68074;SDS011;54864;52.002;5.468;2023-04-21T00:18:53;29.40;;;21.10;;
68074;SDS011;54864;52.002;5.468;2023-04-21T00:19:54;30.65;;;21.98;;
68074;SDS011;54864;52.002;5.468;2023-04-21T00:20:56;32.38;;;21.50;;
68074;SDS011;54864;52.002;5.468;2023-04-21T00:21:58;30.58;;;21.80;;
68074;SDS011;54864;52.002;5.468;2023-04-21T00:23:00;29.10;;;21.15;;
68074;SDS011;54864;52.002;5.468;2023-04-21T00:24:01;29.57;;;22.10;;
68074;SDS011;54864;52.002;5.468;2023-04-21T00:25:03;31.58;;;22.08;;
68074;SDS011;54864;52.002;5.468;2023-04-21T00:26:05;37.40;;;23.17;;
68074;SDS011;54864;52.002;5.468;2023-04-21T00:27:06;30.70;;;22.42;;
68074;SDS011;54864;52.002;5.468;2023-04-21T00:28:07;30.23;;;21.17;;
68074;SDS011;54864;52.002;5.468;2023-04-21T00:29:09;34.55;;;22.17;;
68074;SDS011;54864;52.002;5.468;2023-04-21T00:30:13;30.83;;;22.10;;
68074;SDS011;54864;52.002;5.468;2023-04-21T00:31:14;31.17;;;22.13;;
68074;SDS011;54864;52.002;5.468;2023-04-21T00:32:15;29.23;;;21.15;;
68074;SDS011;54864;52.002;5.468;2023-04-21T00:33:17;32.07;;;21.80;;
68074;SDS011;54864;52.002;5.468;2023-04-21T00:34:18;32.13;;;22.50;;
68074;SDS011;54864;52.002;5.468;2023-04-21T00:35:19;30.17;;;22.50;;
68074;SDS011;54864;52.002;5.468;2023-04-21T00:36:20;33.55;;;23.10;;
68074;SDS011;54864;52.002;5.468;2023-04-21T00:37:25;30.05;;;21.50;;
68074;SDS011;54864;52.002;5.468;2023-04-21T00:38:25;31.67;;;22.13;;
68074;SDS011;54864;52.002;5.468;2023-04-21T00:39:27;32.35;;;23.05;;
68074;SDS011;54864;52.002;5.468;2023-04-21T00:40:28;33.55;;;23.33;;
68074;SDS011;54864;52.002;5.468;2023-04-21T00:41:30;32.43;;;22.67;;
68074;SDS011;54864;52.002;5.468;2023-04-21T00:42:34;34.15;;;23.35;;
68074;SDS011;54864;52.002;5.468;2023-04-21T00:43:36;33.65;;;23.38;;
68074;SDS011;54864;52.002;5.468;2023-04-21T00:44:36;36.80;;;24.80;;
68074;SDS011;54864;52.002;5.468;2023-04-21T00:45:38;32.47;;;23.20;;
68074;SDS011;54864;52.002;5.468;2023-04-21T00:46:39;34.90;;;24.17;;
68074;SDS011;54864;52.002;5.468;2023-04-21T00:47:42;35.60;;;24.73;;
68074;SDS011;54864;52.002;5.468;2023-04-21T00:48:43;35.70;;;25.20;;
68074;SDS011;54864;52.002;5.468;2023-04-21T00:49:44;36.10;;;24.17;;
68074;SDS011;54864;52.002;5.468;2023-04-21T00:50:46;40.30;;;25.83;;
68074;SDS011;54864;52.002;5.468;2023-04-21T00:51:48;38.25;;;25.92;;
68074;SDS011;54864;52.002;5.468;2023-04-21T00:52:51;35.65;;;24.98;;
68074;SDS011;54864;52.002;5.468;2023-04-21T00:53:53;37.20;;;25.95;;
68074;SDS011;54864;52.002;5.468;2023-04-21T00:54:55;36.28;;;25.33;;
68074;SDS011;54864;52.002;5.468;2023-04-21T00:55:57;36.72;;;24.35;;
68074;SDS011;54864;52.002;5.468;2023-04-21T00:56:58;36.20;;;25.10;;
68074;SDS011;54864;52.002;5.468;2023-04-21T00:58:01;38.50;;;26.67;;
68074;SDS011;54864;52.002;5.468;2023-04-21T00:59:02;36.30;;;24.52;;
68074;SDS011;54864;52.002;5.468;2023-04-21T01:00:05;35.85;;;24.90;;
68074;SDS011;54864;52.002;5.468;2023-04-21T01:01:07;38.05;;;26.08;;
68074;SDS011;54864;52.002;5.468;2023-04-21T01:02:09;37.42;;;25.50;;
68074;SDS011;54864;52.002;5.468;2023-04-21T01:03:13;44.40;;;26.55;;
68074;SDS011;54864;52.002;5.468;2023-04-21T01:04:16;38.63;;;25.80;;
68074;SDS011;54864;52.002;5.468;2023-04-21T01:05:16;38.05;;;25.80;;
68074;SDS011;54864;52.002;5.468;2023-04-21T01:06:18;39.00;;;25.77;;
68074;SDS011;54864;52.002;5.468;2023-04-21T01:07:19;38.80;;;25.50;;
68074;SDS011;54864;52.002;5.468;2023-04-21T01:08:22;39.80;;;25.92;;
68074;SDS011;54864;52.002;5.468;2023-04-21T01:09:23;36.65;;;25.75;;
68074;SDS011;54864;52.002;5.468;2023-04-21T01:10:25;38.85;;;26.73;;
68074;SDS011;54864;52.002;5.468;2023-04-21T01:11:25;35.67;;;25.83;;
68074;SDS011;54864;52.002;5.468;2023-04-21T01:12:29;38.80;;;26.83;;
68074;SDS011;54864;52.002;5.468;2023-04-21T01:13:30;36.60;;;26.38;;
68074;SDS011;54864;52.002;5.468;2023-04-21T01:14:32;38.90;;;26.63;;
68074;SDS011;54864;52.002;5.468;2023-04-21T01:15:33;39.08;;;26.50;;
68074;SDS011;54864;52.002;5.468;2023-04-21T01:16:35;39.95;;;26.45;;
68074;SDS011;54864;52.002;5.468;2023-04-21T01:17:39;40.10;;;27.38;;
68074;SDS011;54864;52.002;5.468;2023-04-21T01:18:41;38.53;;;27.27;;
68074;SDS011;54864;52.002;5.468;2023-04-21T01:19:42;38.70;;;26.87;;
68074;SDS011;54864;52.002;5.468;2023-04-21T01:20:44;36.30;;;25.92;;
68074;SDS011;54864;52.002;5.468;2023-04-21T01:21:46;39.03;;;27.60;;
68074;SDS011;54864;52.002;5.468;2023-04-21T01:22:48;38.45;;;26.70;;
68074;SDS011;54864;52.002;5.468;2023-04-21T01:23:50;41.80;;;27.10;;
68074;SDS011;54864;52.002;5.468;2023-04-21T01:24:52;39.08;;;26.95;;
68074;SDS011;54864;52.002;5.468;2023-04-21T01:25:55;39.27;;;27.00;;
68074;SDS011;54864;52.002;5.468;2023-04-21T01:26:57;37.72;;;26.80;;
68074;SDS011;54864;52.002;5.468;2023-04-21T01:27:58;40.65;;;27.25;;
68074;SDS011;54864;52.002;5.468;2023-04-21T01:29:00;39.42;;;26.90;;
68074;SDS011;54864;52.002;5.468;2023-04-21T01:30:01;37.22;;;26.27;;
68074;SDS011;54864;52.002;5.468;2023-04-21T01:31:05;37.08;;;26.00;;
68074;SDS011;54864;52.002;5.468;2023-04-21T01:32:06;39.07;;;27.70;;
68074;SDS011;54864;52.002;5.468;2023-04-21T01:33:09;38.08;;;27.27;;
68074;SDS011;54864;52.002;5.468;2023-04-21T01:34:10;37.85;;;26.45;;
68074;SDS011;54864;52.002;5.468;2023-04-21T01:35:12;42.83;;;29.35;;
68074;SDS011;54864;52.002;5.468;2023-04-21T01:36:13;39.80;;;27.27;;
68074;SDS011;54864;52.002;5.468;2023-04-21T01:37:17;38.53;;;27.20;;
68074;SDS011;54864;52.002;5.468;2023-04-21T01:38:19;37.55;;;27.30;;
68074;SDS011;54864;52.002;5.468;2023-04-21T01:39:21;38.63;;;27.50;;
68074;SDS011;54864;52.002;5.468;2023-04-21T01:40:22;40.70;;;27.30;;
68074;SDS011;54864;52.002;5.468;2023-04-21T01:41:23;39.17;;;27.23;;
68074;SDS011;54864;52.002;5.468;2023-04-21T01:42:24;39.97;;;27.65;;
68074;SDS011;54864;52.002;5.468;2023-04-21T01:43:28;39.97;;;27.60;;
68074;SDS011;54864;52.002;5.468;2023-04-21T01:44:28;40.13;;;28.07;;
68074;SDS011;54864;52.002;5.468;2023-04-21T01:45:30;41.22;;;27.15;;
68074;SDS011;54864;52.002;5.468;2023-04-21T01:46:31;42.05;;;28.52;;
68074;SDS011;54864;52.002;5.468;2023-04-21T01:47:33;41.05;;;27.73;;
68074;SDS011;54864;52.002;5.468;2023-04-21T01:48:35;41.35;;;29.20;;
68074;SDS011;54864;52.002;5.468;2023-04-21T01:49:37;38.97;;;27.55;;
68074;SDS011;54864;52.002;5.468;2023-04-21T01:50:38;42.47;;;28.75;;
68074;SDS011;54864;52.002;5.468;2023-04-21T01:51:40;37.67;;;27.13;;
68074;SDS011;54864;52.002;5.468;2023-04-21T01:52:42;39.20;;;28.60;;
68074;SDS011;54864;52.002;5.468;2023-04-21T01:53:44;40.25;;;28.42;;
68074;SDS011;54864;52.002;5.468;2023-04-21T01:54:44;41.93;;;28.93;;
68074;SDS011;54864;52.002;5.468;2023-04-21T01:55:46;42.70;;;28.48;;
68074;SDS011;54864;52.002;5.468;2023-04-21T01:56:47;41.53;;;29.17;;
68074;SDS011;54864;52.002;5.468;2023-04-21T01:57:51;41.72;;;28.90;;
68074;SDS011;54864;52.002;5.468;2023-04-21T01:58:52;40.03;;;28.67;;
68074;SDS011;54864;52.002;5.468;2023-04-21T01:59:53;40.97;;;28.67;;
68074;SDS011;54864;52.002;5.468;2023-04-21T02:00:54;40.53;;;29.70;;
68074;SDS011;54864;52.002;5.468;2023-04-21T02:01:56;44.38;;;29.98;;
68074;SDS011;54864;52.002;5.468;2023-04-21T02:02:56;40.45;;;29.75;;
68074;SDS011;54864;52.002;5.468;2023-04-21T02:03:58;42.13;;;29.77;;
68074;SDS011;54864;52.002;5.468;2023-04-21T02:04:59;45.30;;;29.67;;
68074;SDS011;54864;52.002;5.468;2023-04-21T02:06:01;43.65;;;31.25;;
68074;SDS011;54864;52.002;5.468;2023-04-21T02:07:01;43.03;;;30.90;;
68074;SDS011;54864;52.002;5.468;2023-04-21T02:08:04;46.50;;;30.98;;
68074;SDS011;54864;52.002;5.468;2023-04-21T02:09:05;43.40;;;30.05;;
68074;SDS011;54864;52.002;5.468;2023-04-21T02:10:07;46.20;;;31.55;;
68074;SDS011;54864;52.002;5.468;2023-04-21T02:11:09;45.70;;;30.30;;
68074;SDS011;54864;52.002;5.468;2023-04-21T02:12:11;44.75;;;30.75;;
68074;SDS011;54864;52.002;5.468;2023-04-21T02:13:12;39.85;;;29.20;;
68074;SDS011;54864;52.002;5.468;2023-04-21T02:14:14;46.63;;;31.60;;
68074;SDS011;54864;52.002;5.468;2023-04-21T02:15:14;45.00;;;30.87;;
68074;SDS011;54864;52.002;5.468;2023-04-21T02:16:16;41.33;;;29.23;;
68074;SDS011;54864;52.002;5.468;2023-04-21T02:17:17;45.83;;;30.85;;
68074;SDS011;54864;52.002;5.468;2023-04-21T02:18:19;43.65;;;30.65;;
68074;SDS011;54864;52.002;5.468;2023-04-21T02:19:20;45.10;;;30.60;;
68074;SDS011;54864;52.002;5.468;2023-04-21T02:20:22;44.30;;;30.17;;
68074;SDS011;54864;52.002;5.468;2023-04-21T02:21:23;41.55;;;29.58;;
68074;SDS011;54864;52.002;5.468;2023-04-21T02:22:25;42.75;;;29.30;;
68074;SDS011;54864;52.002;5.468;2023-04-21T02:23:27;42.10;;;29.38;;
68074;SDS011;54864;52.002;5.468;2023-04-21T02:24:29;42.22;;;30.95;;
68074;SDS011;54864;52.002;5.468;2023-04-21T02:25:29;44.50;;;30.30;;
68074;SDS011;54864;52.002;5.468;2023-04-21T02:26:32;43.13;;;29.85;;
68074;SDS011;54864;52.002;5.468;2023-04-21T02:27:32;40.63;;;29.63;;
68074;SDS011;54864;52.002;5.468;2023-04-21T02:28:34;42.25;;;29.00;;
68074;SDS011;54864;52.002;5.468;2023-04-21T02:29:34;42.50;;;30.63;;
68074;SDS011;54864;52.002;5.468;2023-04-21T02:30:36;47.45;;;30.67;;
68074;SDS011;54864;52.002;5.468;2023-04-21T02:31:37;42.70;;;29.58;;
68074;SDS011;54864;52.002;5.468;2023-04-21T02:32:38;45.08;;;29.70;;
68074;SDS011;54864;52.002;5.468;2023-04-21T02:33:39;42.50;;;29.70;;
68074;SDS011;54864;52.002;5.468;2023-04-21T02:34:41;43.60;;;29.67;;
68074;SDS011;54864;52.002;5.468;2023-04-21T02:35:42;41.22;;;29.55;;
68074;SDS011;54864;52.002;5.468;2023-04-21T02:36:43;43.55;;;30.08;;
68074;SDS011;54864;52.002;5.468;2023-04-21T02:37:44;42.97;;;29.93;;
68074;SDS011;54864;52.002;5.468;2023-04-21T02:38:47;42.63;;;29.15;;
68074;SDS011;54864;52.002;5.468;2023-04-21T02:39:48;43.85;;;30.50;;
68074;SDS011;54864;52.002;5.468;2023-04-21T02:40:50;42.70;;;30.92;;
68074;SDS011;54864;52.002;5.468;2023-04-21T02:41:51;45.25;;;30.83;;
68074;SDS011;54864;52.002;5.468;2023-04-21T02:42:53;45.70;;;30.38;;
68074;SDS011;54864;52.002;5.468;2023-04-21T02:43:54;43.63;;;30.60;;
68074;SDS011;54864;52.002;5.468;2023-04-21T02:44:55;42.67;;;30.23;;
68074;SDS011;54864;52.002;5.468;2023-04-21T02:45:56;43.90;;;31.17;;
68074;SDS011;54864;52.002;5.468;2023-04-21T02:46:58;42.42;;;30.70;;
68074;SDS011;54864;52.002;5.468;2023-04-21T02:47:58;46.63;;;31.87;;
68074;SDS011;54864;52.002;5.468;2023-04-21T02:49:00;44.60;;;31.98;;
68074;SDS011;54864;52.002;5.468;2023-04-21T02:50:00;43.40;;;31.27;;
68074;SDS011;54864;52.002;5.468;2023-04-21T02:51:03;46.08;;;30.88;;
68074;SDS011;54864;52.002;5.468;2023-04-21T02:52:04;48.55;;;31.88;;
68074;SDS011;54864;52.002;5.468;2023-04-21T02:53:06;44.88;;;31.20;;
68074;SDS011;54864;52.002;5.468;2023-04-21T02:54:08;44.80;;;31.27;;
68074;SDS011;54864;52.002;5.468;2023-04-21T02:55:10;44.05;;;31.00;;
68074;SDS011;54864;52.002;5.468;2023-04-21T02:56:10;40.40;;;29.90;;
68074;SDS011;54864;52.002;5.468;2023-04-21T02:57:12;47.03;;;32.42;;
68074;SDS011;54864;52.002;5.468;2023-04-21T02:58:12;44.25;;;32.35;;
68074;SDS011;54864;52.002;5.468;2023-04-21T02:59:15;48.20;;;32.10;;
68074;SDS011;54864;52.002;5.468;2023-04-21T03:00:16;45.95;;;31.23;;
68074;SDS011;54864;52.002;5.468;2023-04-21T03:01:18;43.25;;;31.10;;
68074;SDS011;54864;52.002;5.468;2023-04-21T03:02:19;44.03;;;30.52;;
68074;SDS011;54864;52.002;5.468;2023-04-21T03:03:20;47.53;;;31.37;;
68074;SDS011;54864;52.002;5.468;2023-04-21T03:04:22;45.00;;;32.40;;
68074;SDS011;54864;52.002;5.468;2023-04-21T03:05:24;44.28;;;31.33;;
68074;SDS011;54864;52.002;5.468;2023-04-21T03:06:27;45.67;;;31.10;;
68074;SDS011;54864;52.002;5.468;2023-04-21T03:07:29;45.00;;;31.20;;
68074;SDS011;54864;52.002;5.468;2023-04-21T03:08:30;44.13;;;31.42;;
68074;SDS011;54864;52.002;5.468;2023-04-21T03:09:33;44.45;;;31.50;;
68074;SDS011;54864;52.002;5.468;2023-04-21T03:10:35;43.83;;;30.73;;
68074;SDS011;54864;52.002;5.468;2023-04-21T03:11:37;42.95;;;31.40;;
68074;SDS011;54864;52.002;5.468;2023-04-21T03:12:37;45.20;;;31.23;;
68074;SDS011;54864;52.002;5.468;2023-04-21T03:13:39;44.45;;;31.35;;
68074;SDS011;54864;52.002;5.468;2023-04-21T03:14:40;43.30;;;29.40;;
68074;SDS011;54864;52.002;5.468;2023-04-21T03:15:42;43.35;;;29.35;;
68074;SDS011;54864;52.002;5.468;2023-04-21T03:16:42;42.58;;;30.15;;
68074;SDS011;54864;52.002;5.468;2023-04-21T03:17:44;46.92;;;32.33;;
68074;SDS011;54864;52.002;5.468;2023-04-21T03:18:47;44.67;;;32.15;;
68074;SDS011;54864;52.002;5.468;2023-04-21T03:19:49;44.55;;;31.98;;
68074;SDS011;54864;52.002;5.468;2023-04-21T03:20:50;43.75;;;31.85;;
68074;SDS011;54864;52.002;5.468;2023-04-21T03:21:51;47.88;;;33.53;;
68074;SDS011;54864;52.002;5.468;2023-04-21T03:22:53;43.85;;;31.98;;
68074;SDS011;54864;52.002;5.468;2023-04-21T03:23:54;44.70;;;31.25;;
68074;SDS011;54864;52.002;5.468;2023-04-21T03:24:57;45.40;;;31.92;;
68074;SDS011;54864;52.002;5.468;2023-04-21T03:25:58;45.85;;;32.58;;
68074;SDS011;54864;52.002;5.468;2023-04-21T03:26:59;47.90;;;32.53;;
68074;SDS011;54864;52.002;5.468;2023-04-21T03:28:01;46.08;;;32.63;;
68074;SDS011;54864;52.002;5.468;2023-04-21T03:29:03;43.30;;;30.17;;
68074;SDS011;54864;52.002;5.468;2023-04-21T03:30:04;46.08;;;31.80;;
68074;SDS011;54864;52.002;5.468;2023-04-21T03:31:07;42.88;;;30.88;;
68074;SDS011;54864;52.002;5.468;2023-04-21T03:32:07;44.00;;;30.83;;
68074;SDS011;54864;52.002;5.468;2023-04-21T03:33:09;39.63;;;30.38;;
68074;SDS011;54864;52.002;5.468;2023-04-21T03:34:10;44.20;;;31.85;;
68074;SDS011;54864;52.002;5.468;2023-04-21T03:35:11;45.08;;;31.00;;
68074;SDS011;54864;52.002;5.468;2023-04-21T03:36:14;42.10;;;30.85;;
68074;SDS011;54864;52.002;5.468;2023-04-21T03:37:16;42.50;;;30.73;;
68074;SDS011;54864;52.002;5.468;2023-04-21T03:38:17;42.08;;;30.73;;
68074;SDS011;54864;52.002;5.468;2023-04-21T03:39:19;43.13;;;30.85;;
68074;SDS011;54864;52.002;5.468;2023-04-21T03:40:24;43.87;;;32.07;;
68074;SDS011;54864;52.002;5.468;2023-04-21T03:41:25;41.47;;;30.77;;
68074;SDS011;54864;52.002;5.468;2023-04-21T03:42:26;45.47;;;32.17;;
68074;SDS011;54864;52.002;5.468;2023-04-21T03:43:29;41.42;;;30.85;;
68074;SDS011;54864;52.002;5.468;2023-04-21T03:44:29;42.85;;;31.85;;
68074;SDS011;54864;52.002;5.468;2023-04-21T03:45:31;44.45;;;32.15;;
68074;SDS011;54864;52.002;5.468;2023-04-21T03:46:43;46.30;;;32.90;;
68074;SDS011;54864;52.002;5.468;2023-04-21T03:47:45;44.33;;;32.65;;
68074;SDS011;54864;52.002;5.468;2023-04-21T03:48:46;43.28;;;31.85;;
68074;SDS011;54864;52.002;5.468;2023-04-21T03:49:48;45.95;;;34.05;;
68074;SDS011;54864;52.002;5.468;2023-04-21T03:50:48;48.33;;;33.57;;
68074;SDS011;54864;52.002;5.468;2023-04-21T03:51:50;44.90;;;32.10;;
68074;SDS011;54864;52.002;5.468;2023-04-21T03:52:51;43.88;;;31.42;;
68074;SDS011;54864;52.002;5.468;2023-04-21T03:53:53;44.17;;;31.88;;
68074;SDS011;54864;52.002;5.468;2023-04-21T03:54:53;43.90;;;32.00;;
68074;SDS011;54864;52.002;5.468;2023-04-21T03:55:56;46.97;;;33.53;;
68074;SDS011;54864;52.002;5.468;2023-04-21T03:56:57;41.67;;;31.65;;
68074;SDS011;54864;52.002;5.468;2023-04-21T03:57:59;44.17;;;32.47;;
68074;SDS011;54864;52.002;5.468;2023-04-21T03:59:00;42.90;;;31.00;;
68074;SDS011;54864;52.002;5.468;2023-04-21T04:00:02;43.30;;;31.45;;
68074;SDS011;54864;52.002;5.468;2023-04-21T04:01:04;47.45;;;32.97;;
68074;SDS011;54864;52.002;5.468;2023-04-21T04:02:06;42.25;;;32.25;;
68074;SDS011;54864;52.002;5.468;2023-04-21T04:03:07;45.33;;;33.57;;
68074;SDS011;54864;52.002;5.468;2023-04-21T04:04:09;44.70;;;32.78;;
68074;SDS011;54864;52.002;5.468;2023-04-21T04:05:10;44.58;;;32.17;;
68074;SDS011;54864;52.002;5.468;2023-04-21T04:06:11;43.03;;;31.98;;
68074;SDS011;54864;52.002;5.468;2023-04-21T04:07:14;44.42;;;31.50;;
68074;SDS011;54864;52.002;5.468;2023-04-21T04:08:16;43.13;;;31.97;;
68074;SDS011;54864;52.002;5.468;2023-04-21T04:09:17;43.07;;;32.87;;
68074;SDS011;54864;52.002;5.468;2023-04-21T04:10:19;41.55;;;32.28;;
68074;SDS011;54864;52.002;5.468;2023-04-21T04:11:21;46.47;;;33.55;;
68074;SDS011;54864;52.002;5.468;2023-04-21T04:12:23;42.30;;;31.75;;
68074;SDS011;54864;52.002;5.468;2023-04-21T04:13:24;45.53;;;32.58;;
68074;SDS011;54864;52.002;5.468;2023-04-21T04:14:26;44.63;;;31.87;;
68074;SDS011;54864;52.002;5.468;2023-04-21T04:15:27;43.23;;;31.87;;
68074;SDS011;54864;52.002;5.468;2023-04-21T04:16:29;43.63;;;32.45;;
68074;SDS011;54864;52.002;5.468;2023-04-21T04:17:30;44.97;;;33.30;;
68074;SDS011;54864;52.002;5.468;2023-04-21T04:18:31;44.07;;;33.13;;
68074;SDS011;54864;52.002;5.468;2023-04-21T04:19:32;48.00;;;34.27;;
68074;SDS011;54864;52.002;5.468;2023-04-21T04:20:34;49.28;;;34.17;;
68074;SDS011;54864;52.002;5.468;2023-04-21T04:21:35;44.78;;;33.60;;
68074;SDS011;54864;52.002;5.468;2023-04-21T04:22:37;44.55;;;33.38;;
68074;SDS011;54864;52.002;5.468;2023-04-21T04:23:39;46.60;;;34.17;;
68074;SDS011;54864;52.002;5.468;2023-04-21T04:24:40;44.33;;;32.13;;
68074;SDS011;54864;52.002;5.468;2023-04-21T04:25:41;46.17;;;34.38;;
68074;SDS011;54864;52.002;5.468;2023-04-21T04:26:44;44.30;;;32.63;;
68074;SDS011;54864;52.002;5.468;2023-04-21T04:27:44;46.67;;;33.72;;
68074;SDS011;54864;52.002;5.468;2023-04-21T04:28:48;46.08;;;33.90;;
68074;SDS011;54864;52.002;5.468;2023-04-21T04:29:49;46.97;;;34.13;;
68074;SDS011;54864;52.002;5.468;2023-04-21T04:30:52;47.25;;;33.95;;
68074;SDS011;54864;52.002;5.468;2023-04-21T04:31:54;45.08;;;32.90;;
68074;SDS011;54864;52.002;5.468;2023-04-21T04:32:57;45.17;;;33.50;;
68074;SDS011;54864;52.002;5.468;2023-04-21T04:34:00;42.05;;;32.53;;
68074;SDS011;54864;52.002;5.468;2023-04-21T04:35:02;46.90;;;33.95;;
68074;SDS011;54864;52.002;5.468;2023-04-21T04:36:03;49.38;;;33.88;;
68074;SDS011;54864;52.002;5.468;2023-04-21T04:37:05;55.70;;;35.40;;
68074;SDS011;54864;52.002;5.468;2023-04-21T04:38:10;47.63;;;33.80;;
68074;SDS011;54864;52.002;5.468;2023-04-21T04:39:14;46.03;;;34.80;;
68074;SDS011;54864;52.002;5.468;2023-04-21T04:40:16;43.45;;;32.67;;
68074;SDS011;54864;52.002;5.468;2023-04-21T04:41:19;42.63;;;33.07;;
68074;SDS011;54864;52.002;5.468;2023-04-21T04:42:23;44.00;;;33.17;;
68074;SDS011;54864;52.002;5.468;2023-04-21T04:43:25;46.00;;;33.97;;
68074;SDS011;54864;52.002;5.468;2023-04-21T04:44:25;47.47;;;35.17;;
68074;SDS011;54864;52.002;5.468;2023-04-21T04:45:27;48.03;;;33.58;;
68074;SDS011;54864;52.002;5.468;2023-04-21T04:46:32;44.30;;;33.88;;
68074;SDS011;54864;52.002;5.468;2023-04-21T04:47:34;47.05;;;34.13;;
68074;SDS011;54864;52.002;5.468;2023-04-21T04:48:34;46.55;;;34.42;;
68074;SDS011;54864;52.002;5.468;2023-04-21T04:49:36;45.20;;;34.22;;
68074;SDS011;54864;52.002;5.468;2023-04-21T04:50:37;45.78;;;34.72;;
68074;SDS011;54864;52.002;5.468;2023-04-21T04:51:38;48.08;;;35.05;;
68074;SDS011;54864;52.002;5.468;2023-04-21T04:52:39;48.63;;;35.00;;
68074;SDS011;54864;52.002;5.468;2023-04-21T04:53:41;48.60;;;35.30;;
68074;SDS011;54864;52.002;5.468;2023-04-21T04:54:42;45.53;;;33.95;;
68074;SDS011;54864;52.002;5.468;2023-04-21T04:55:43;47.10;;;34.60;;
68074;SDS011;54864;52.002;5.468;2023-04-21T04:56:45;48.30;;;35.88;;
68074;SDS011;54864;52.002;5.468;2023-04-21T04:57:48;46.33;;;33.65;;
68074;SDS011;54864;52.002;5.468;2023-04-21T04:58:48;48.63;;;35.08;;
68074;SDS011;54864;52.002;5.468;2023-04-21T04:59:53;49.10;;;35.03;;
68074;SDS011;54864;52.002;5.468;2023-04-21T05:00:54;50.97;;;35.22;;
68074;SDS011;54864;52.002;5.468;2023-04-21T05:01:56;50.35;;;36.53;;
68074;SDS011;54864;52.002;5.468;2023-04-21T05:02:57;48.88;;;35.92;;
68074;SDS011;54864;52.002;5.468;2023-04-21T05:03:58;48.00;;;35.38;;
68074;SDS011;54864;52.002;5.468;2023-04-21T05:04:59;46.93;;;35.73;;
68074;SDS011;54864;52.002;5.468;2023-04-21T05:06:01;47.42;;;36.08;;
68074;SDS011;54864;52.002;5.468;2023-04-21T05:07:01;50.13;;;35.35;;
68074;SDS011;54864;52.002;5.468;2023-04-21T05:08:05;46.60;;;35.83;;
68074;SDS011;54864;52.002;5.468;2023-04-21T05:09:05;49.10;;;36.63;;
68074;SDS011;54864;52.002;5.468;2023-04-21T05:10:08;50.65;;;37.55;;
68074;SDS011;54864;52.002;5.468;2023-04-21T05:11:08;47.78;;;36.72;;
68074;SDS011;54864;52.002;5.468;2023-04-21T05:12:10;50.00;;;36.75;;
68074;SDS011;54864;52.002;5.468;2023-04-21T05:13:12;53.55;;;37.15;;
68074;SDS011;54864;52.002;5.468;2023-04-21T05:14:20;53.85;;;39.17;;
68074;SDS011;54864;52.002;5.468;2023-04-21T05:15:21;50.92;;;37.78;;
68074;SDS011;54864;52.002;5.468;2023-04-21T05:16:22;50.70;;;37.60;;
68074;SDS011;54864;52.002;5.468;2023-04-21T05:17:23;54.58;;;38.28;;
68074;SDS011;54864;52.002;5.468;2023-04-21T05:18:25;50.83;;;37.85;;
68074;SDS011;54864;52.002;5.468;2023-04-21T05:19:26;53.53;;;38.90;;
68074;SDS011;54864;52.002;5.468;2023-04-21T05:20:27;52.70;;;36.47;;
68074;SDS011;54864;52.002;5.468;2023-04-21T05:21:28;51.13;;;36.80;;
68074;SDS011;54864;52.002;5.468;2023-04-21T05:22:30;49.58;;;36.72;;
68074;SDS011;54864;52.002;5.468;2023-04-21T05:23:32;49.92;;;37.25;;
68074;SDS011;54864;52.002;5.468;2023-04-21T05:24:33;51.58;;;38.25;;
68074;SDS011;54864;52.002;5.468;2023-04-21T05:25:35;51.03;;;37.80;;
68074;SDS011;54864;52.002;5.468;2023-04-21T05:26:37;53.72;;;38.42;;
68074;SDS011;54864;52.002;5.468;2023-04-21T05:27:39;54.08;;;38.78;;
68074;SDS011;54864;52.002;5.468;2023-04-21T05:28:41;51.83;;;38.25;;
68074;SDS011;54864;52.002;5.468;2023-04-21T05:29:43;52.08;;;38.28;;
68074;SDS011;54864;52.002;5.468;2023-04-21T05:30:45;50.88;;;37.78;;
68074;SDS011;54864;52.002;5.468;2023-04-21T05:31:46;52.27;;;39.60;;
68074;SDS011;54864;52.002;5.468;2023-04-21T05:32:47;52.90;;;38.72;;
68074;SDS011;54864;52.002;5.468;2023-04-21T05:33:48;54.08;;;38.83;;
68074;SDS011;54864;52.002;5.468;2023-04-21T05:34:50;54.28;;;39.60;;
68074;SDS011;54864;52.002;5.468;2023-04-21T05:35:51;50.77;;;37.60;;
68074;SDS011;54864;52.002;5.468;2023-04-21T05:36:53;52.80;;;38.60;;
68074;SDS011;54864;52.002;5.468;2023-04-21T05:37:53;53.13;;;38.80;;
68074;SDS011;54864;52.002;5.468;2023-04-21T05:38:55;57.47;;;39.42;;
68074;SDS011;54864;52.002;5.468;2023-04-21T05:39:56;54.40;;;38.63;;
68074;SDS011;54864;52.002;5.468;2023-04-21T05:40:58;54.05;;;40.03;;
68074;SDS011;54864;52.002;5.468;2023-04-21T05:41:59;54.00;;;39.75;;
68074;SDS011;54864;52.002;5.468;2023-04-21T05:43:01;51.92;;;37.83;;
68074;SDS011;54864;52.002;5.468;2023-04-21T05:44:05;52.05;;;39.05;;
68074;SDS011;54864;52.002;5.468;2023-04-21T05:45:06;54.80;;;39.17;;
68074;SDS011;54864;52.002;5.468;2023-04-21T05:46:08;57.33;;;40.03;;
68074;SDS011;54864;52.002;5.468;2023-04-21T05:47:10;51.03;;;38.55;;
68074;SDS011;54864;52.002;5.468;2023-04-21T05:48:11;55.95;;;39.50;;
68074;SDS011;54864;52.002;5.468;2023-04-21T05:49:12;50.57;;;37.73;;
68074;SDS011;54864;52.002;5.468;2023-04-21T05:50:14;51.38;;;38.65;;
68074;SDS011;54864;52.002;5.468;2023-04-21T05:51:17;52.78;;;39.03;;
68074;SDS011;54864;52.002;5.468;2023-04-21T05:52:18;56.63;;;40.42;;
68074;SDS011;54864;52.002;5.468;2023-04-21T05:53:20;55.15;;;40.60;;
68074;SDS011;54864;52.002;5.468;2023-04-21T05:54:22;56.75;;;40.50;;
68074;SDS011;54864;52.002;5.468;2023-04-21T05:55:23;53.30;;;39.67;;
68074;SDS011;54864;52.002;5.468;2023-04-21T05:56:25;59.92;;;41.45;;
68074;SDS011;54864;52.002;5.468;2023-04-21T05:57:25;54.38;;;39.42;;
68074;SDS011;54864;52.002;5.468;2023-04-21T05:58:27;55.92;;;39.25;;
68074;SDS011;54864;52.002;5.468;2023-04-21T05:59:29;57.13;;;41.20;;
68074;SDS011;54864;52.002;5.468;2023-04-21T06:00:31;59.22;;;40.88;;